Time;durP1;ratioP1;P1;durP2;ratioP2;P2;SDS_P1;SDS_P2;PMS_P1;PMS_P2;Temp;Humidity;BMP_temperature;BMP_pressure;BME280_temperature;BME280_humidity;BME280_pressure;Samples;Min_cycle;Max_cycle;Signal;HPM_P1;HPM_P2
2023/06/19 00:02:06;;;;;;;8.52;6.30;;;21.70;99.90;;;;;;5098466;28;20040;-75
2023/06/19 00:04:32;;;;;;;8.43;5.75;;;21.70;99.90;;;;;;5109482;28;20462;-75
2023/06/19 00:07:00;;;;;;;7.68;5.95;;;21.70;99.90;;;;;;5119635;28;20043;-74
2023/06/19 00:09:26;;;;;;;6.93;6.05;;;21.70;99.90;;;;;;5113670;28;20146;-75
2023/06/19 00:11:52;;;;;;;7.82;6.00;;;21.70;99.90;;;;;;5095412;28;20031;-75
2023/06/19 00:14:17;;;;;;;6.90;5.90;;;21.70;99.90;;;;;;5109700;28;20455;-75
2023/06/19 00:16:44;;;;;;;9.02;6.10;;;21.70;99.90;;;;;;5108951;28;20485;-76
2023/06/19 00:19:11;;;;;;;12.98;6.68;;;21.60;99.90;;;;;;5107077;28;20047;-73
2023/06/19 00:21:37;;;;;;;7.35;5.82;;;21.60;99.90;;;;;;5105299;28;20115;-74
2023/06/19 00:24:03;;;;;;;7.25;5.88;;;21.60;99.90;;;;;;5079522;28;20148;-75
2023/06/19 00:26:29;;;;;;;8.73;6.30;;;21.60;99.90;;;;;;5098824;28;20548;-76
2023/06/19 00:28:54;;;;;;;7.80;6.05;;;21.60;99.90;;;;;;5105713;28;20123;-75
2023/06/19 00:31:20;;;;;;;7.95;6.47;;;21.60;99.80;;;;;;5103014;28;20043;-74
2023/06/19 00:33:49;;;;;;;7.80;5.75;;;21.60;99.90;;;;;;5105936;28;20075;-75
2023/06/19 00:36:15;;;;;;;12.20;6.25;;;21.60;99.90;;;;;;5085545;28;20052;-74
2023/06/19 00:38:42;;;;;;;9.50;5.97;;;21.60;99.90;;;;;;5110372;27;20115;-74
2023/06/19 00:41:08;;;;;;;6.93;5.47;;;21.60;99.90;;;;;;5115323;28;20052;-74
2023/06/19 00:43:34;;;;;;;7.45;6.00;;;21.50;99.90;;;;;;5091328;28;20470;-75
2023/06/19 00:46:02;;;;;;;7.93;6.30;;;21.60;99.90;;;;;;5113816;27;20118;-75
2023/06/19 00:48:29;;;;;;;8.05;5.80;;;21.60;99.80;;;;;;5113412;27;20088;-74
2023/06/19 00:50:56;;;;;;;7.45;5.68;;;21.60;99.90;;;;;;5117245;27;20067;-75
2023/06/19 00:53:22;;;;;;;8.85;6.25;;;21.50;99.80;;;;;;5095951;27;20055;-73
2023/06/19 00:55:48;;;;;;;8.32;6.50;;;21.60;99.70;;;;;;5112290;27;20050;-75
2023/06/19 00:58:15;;;;;;;8.77;5.60;;;21.60;99.90;;;;;;5109816;27;20039;-76
2023/06/19 01:00:40;;;;;;;8.25;6.00;;;21.60;99.80;;;;;;5107018;27;20119;-74
2023/06/19 01:03:06;;;;;;;8.65;5.68;;;21.60;99.80;;;;;;5115811;27;20068;-75
2023/06/19 01:05:33;;;;;;;8.02;6.10;;;21.60;99.70;;;;;;5094293;28;20044;-75
2023/06/19 01:08:20;;;;;;;12.13;6.50;;;21.60;99.50;;;;;;5116959;27;20097;-74
2023/06/19 01:10:57;;;;;;;7.95;6.18;;;21.50;99.20;;;;;;5109087;27;20128;-74
2023/06/19 01:13:45;;;;;;;11.25;6.25;;;21.50;99.00;;;;;;5110698;28;20089;-74
2023/06/19 01:16:12;;;;;;;7.13;5.60;;;21.50;98.90;;;;;;5108479;27;20035;-76
2023/06/19 01:18:39;;;;;;;11.48;6.32;;;21.50;98.70;;;;;;5124187;27;20046;-74
2023/06/19 01:21:12;;;;;;;6.82;5.60;;;21.50;98.70;;;;;;5096409;28;20108;-75
2023/06/19 01:23:38;;;;;;;11.65;6.47;;;21.50;98.40;;;;;;5114763;27;20016;-72
2023/06/19 01:26:03;;;;;;;8.43;5.50;;;21.50;98.30;;;;;;5125208;27;20047;-75
2023/06/19 01:28:29;;;;;;;10.30;5.78;;;21.50;98.20;;;;;;5090628;28;20031;-75
2023/06/19 01:30:57;;;;;;;11.73;6.32;;;21.50;98.10;;;;;;5122512;27;20092;-75
2023/06/19 01:33:27;;;;;;;11.55;6.53;;;21.40;98.00;;;;;;5110230;28;20044;-74
2023/06/19 01:35:55;;;;;;;7.95;6.57;;;21.50;98.00;;;;;;5112331;27;20051;-75
2023/06/19 01:38:25;;;;;;;7.82;6.03;;;21.50;97.80;;;;;;5106329;28;20458;-75
2023/06/19 01:40:54;;;;;;;10.35;6.20;;;21.40;97.70;;;;;;5095700;28;20101;-74
2023/06/19 01:43:20;;;;;;;6.53;5.80;;;21.40;97.60;;;;;;5099382;28;20051;-76
2023/06/19 01:45:46;;;;;;;10.10;6.43;;;21.40;97.50;;;;;;5106545;27;20111;-75
2023/06/19 01:48:12;;;;;;;10.27;6.13;;;21.40;97.50;;;;;;5097379;28;20396;-77
2023/06/19 01:50:38;;;;;;;8.40;6.28;;;21.40;97.30;;;;;;5097228;28;20162;-75
2023/06/19 01:53:03;;;;;;;7.50;5.97;;;21.40;97.40;;;;;;5084504;28;20130;-75
2023/06/19 01:55:29;;;;;;;7.25;6.00;;;21.40;97.40;;;;;;5104523;28;20465;-76
2023/06/19 01:57:55;;;;;;;9.10;5.85;;;21.40;97.40;;;;;;5102401;28;20074;-73
2023/06/19 02:00:21;;;;;;;8.70;6.38;;;21.30;97.30;;;;;;5109610;28;20043;-73
2023/06/19 02:02:47;;;;;;;8.85;5.97;;;21.40;97.40;;;;;;5103500;27;20047;-75
2023/06/19 02:05:13;;;;;;;7.40;6.20;;;21.40;97.40;;;;;;5123734;27;20485;-75
2023/06/19 02:07:39;;;;;;;6.90;5.55;;;21.30;97.40;;;;;;5110491;28;20036;-76
2023/06/19 02:10:06;;;;;;;11.32;6.40;;;21.30;97.40;;;;;;5108068;28;20040;-75
2023/06/19 02:12:31;;;;;;;7.47;6.10;;;21.30;97.40;;;;;;5098906;28;20040;-75
2023/06/19 02:14:57;;;;;;;7.97;5.95;;;21.20;97.40;;;;;;5089339;28;20537;-74
2023/06/19 02:17:22;;;;;;;11.00;6.13;;;21.30;97.40;;;;;;5102456;28;20397;-76
2023/06/19 02:19:48;;;;;;;10.02;6.95;;;21.30;97.40;;;;;;5108305;27;20043;-75
2023/06/19 02:22:14;;;;;;;7.20;5.90;;;21.30;97.30;;;;;;5100143;27;20044;-75
2023/06/19 02:24:39;;;;;;;8.32;6.35;;;21.30;97.10;;;;;;5110225;28;20046;-74
2023/06/19 02:27:06;;;;;;;9.40;6.22;;;21.30;97.00;;;;;;5109588;28;20032;-76
2023/06/19 02:29:33;;;;;;;10.35;6.30;;;21.30;96.80;;;;;;5100178;28;20042;-74
2023/06/19 02:31:59;;;;;;;;;;;21.30;96.70;;;;;;5099968;28;20048;-75
2023/06/19 02:34:25;;;;;;;9.73;6.13;;;21.30;96.50;;;;;;5106393;28;19926;-75
2023/06/19 02:36:50;;;;;;;7.57;6.05;;;21.30;96.60;;;;;;5104881;27;20092;-75
2023/06/19 02:39:17;;;;;;;7.93;6.15;;;21.30;96.50;;;;;;5103711;28;20093;-75
2023/06/19 02:41:46;;;;;;;8.38;6.22;;;21.30;96.30;;;;;;5111281;28;20051;-73
2023/06/19 02:44:12;;;;;;;14.80;7.20;;;21.30;96.30;;;;;;5098679;28;20119;-74
2023/06/19 02:46:38;;;;;;;8.57;6.63;;;21.30;96.10;;;;;;5096828;28;20087;-75
2023/06/19 02:49:04;;;;;;;8.35;6.15;;;21.30;96.00;;;;;;5100488;28;20129;-73
2023/06/19 02:51:29;;;;;;;9.60;6.70;;;21.30;95.80;;;;;;5108649;28;20048;-76
2023/06/19 02:53:55;;;;;;;9.25;6.50;;;21.30;95.60;;;;;;5086603;28;20051;-75
2023/06/19 02:56:21;;;;;;;8.65;6.30;;;21.30;95.60;;;;;;5111186;27;20401;-76
2023/06/19 02:58:46;;;;;;;8.68;7.10;;;21.30;95.50;;;;;;5110558;28;20393;-75
2023/06/19 03:01:12;;;;;;;10.50;6.78;;;21.30;95.50;;;;;;5103802;27;20039;-74
2023/06/19 03:03:38;;;;;;;8.63;6.05;;;21.30;95.50;;;;;;5103076;28;20040;-73
2023/06/19 03:06:08;;;;;;;8.80;6.88;;;21.30;95.40;;;;;;5097803;28;20042;-75
2023/06/19 03:08:37;;;;;;;9.95;6.80;;;21.30;95.20;;;;;;5086577;28;20401;-75
2023/06/19 03:11:04;;;;;;;10.23;6.68;;;21.30;95.10;;;;;;5113768;27;20396;-75
2023/06/19 03:13:45;;;;;;;8.65;6.43;;;21.30;95.10;;;;;;5089032;28;20035;-78
2023/06/19 03:16:11;;;;;;;9.98;6.88;;;21.30;95.10;;;;;;5107930;28;20540;-74
2023/06/19 03:18:36;;;;;;;14.02;7.22;;;21.30;95.10;;;;;;5102265;28;20119;-75
2023/06/19 03:21:02;;;;;;;9.30;6.25;;;21.30;95.20;;;;;;5107984;28;20036;-75
2023/06/19 03:23:28;;;;;;;8.75;6.75;;;21.30;95.20;;;;;;5116146;28;20497;-75
2023/06/19 03:25:53;;;;;;;7.93;6.60;;;21.30;95.30;;;;;;5102815;28;20040;-75
2023/06/19 03:28:19;;;;;;;8.80;7.00;;;21.20;95.30;;;;;;5104022;28;20354;-75
2023/06/19 03:30:44;;;;;;;11.60;6.80;;;21.20;95.30;;;;;;5113018;28;20039;-73
2023/06/19 03:33:10;;;;;;;9.25;6.38;;;21.20;95.30;;;;;;5112497;28;20116;-74
2023/06/19 03:35:36;;;;;;;9.65;6.43;;;21.20;95.20;;;;;;5102975;28;20103;-74
2023/06/19 03:38:01;;;;;;;8.30;6.57;;;21.20;95.20;;;;;;5121849;27;20071;-75
2023/06/19 03:40:27;;;;;;;8.40;6.90;;;21.30;95.20;;;;;;5109648;28;20118;-74
2023/06/19 03:42:53;;;;;;;10.10;6.45;;;21.20;95.40;;;;;;5086747;28;20085;-74
2023/06/19 03:45:19;;;;;;;10.50;6.47;;;21.20;95.10;;;;;;5120964;28;20032;-75
2023/06/19 03:47:44;;;;;;;8.60;6.85;;;21.20;95.10;;;;;;5094647;28;20036;-74
2023/06/19 03:50:10;;;;;;;7.25;6.28;;;21.20;95.10;;;;;;5097635;28;20465;-73
2023/06/19 03:52:36;;;;;;;13.15;6.47;;;21.20;95.10;;;;;;5097916;28;20432;-72
2023/06/19 03:55:03;;;;;;;9.70;6.28;;;21.20;95.10;;;;;;5098229;28;20126;-73
2023/06/19 03:57:29;;;;;;;7.57;6.18;;;21.20;95.20;;;;;;5106349;28;20040;-75
2023/06/19 03:59:54;;;;;;;8.07;6.20;;;21.30;95.20;;;;;;5111788;28;20040;-73
2023/06/19 04:02:20;;;;;;;9.63;6.18;;;21.30;95.20;;;;;;5101892;28;20036;-74
2023/06/19 04:04:45;;;;;;;11.73;6.68;;;21.30;95.30;;;;;;5103211;28;20059;-74
2023/06/19 04:07:11;;;;;;;9.13;6.13;;;21.30;95.30;;;;;;5114571;28;20035;-73
2023/06/19 04:09:37;;;;;;;8.82;6.65;;;21.30;95.40;;;;;;5122345;27;20073;-73
2023/06/19 04:12:03;;;;;;;11.20;6.85;;;21.40;95.50;;;;;;5105559;28;20044;-72
2023/06/19 04:14:28;;;;;;;9.60;6.35;;;21.30;95.70;;;;;;5106551;28;20504;-74
2023/06/19 04:16:54;;;;;;;9.27;5.95;;;21.30;95.90;;;;;;5100405;28;20032;-73
2023/06/19 04:19:19;;;;;;;10.00;5.72;;;21.40;96.10;;;;;;5112382;27;20132;-74
2023/06/19 04:21:45;;;;;;;9.48;5.72;;;21.40;96.20;;;;;;5083495;28;20155;-73
2023/06/19 04:24:11;;;;;;;9.63;5.95;;;21.40;96.30;;;;;;5107304;28;20422;-75
2023/06/19 04:26:36;;;;;;;8.50;5.65;;;21.40;96.30;;;;;;5115120;28;20035;-74
2023/06/19 04:29:03;;;;;;;8.85;6.07;;;21.40;96.50;;;;;;5107441;28;20036;-76
2023/06/19 04:31:29;;;;;;;7.50;6.07;;;21.50;96.70;;;;;;5115610;28;20078;-74
2023/06/19 04:33:56;;;;;;;8.17;6.57;;;21.50;96.90;;;;;;5115934;28;20039;-75
2023/06/19 04:36:22;;;;;;;9.20;6.50;;;21.50;97.00;;;;;;5131091;27;20031;-75
2023/06/19 04:38:51;;;;;;;8.43;5.78;;;21.50;97.00;;;;;;5115934;28;20042;-73
2023/06/19 04:41:17;;;;;;;7.55;6.03;;;21.50;97.10;;;;;;5113264;28;20082;-73
2023/06/19 04:43:42;;;;;;;10.35;5.80;;;21.50;97.30;;;;;;5095618;28;20061;-74
2023/06/19 04:46:08;;;;;;;6.78;5.30;;;21.50;97.60;;;;;;5073930;28;20044;-73
2023/06/19 04:48:36;;;;;;;9.07;5.63;;;21.50;97.80;;;;;;5112940;28;20036;-74
2023/06/19 04:51:02;;;;;;;7.43;5.40;;;21.50;97.90;;;;;;5082941;28;20043;-73
2023/06/19 04:53:28;;;;;;;11.05;5.47;;;21.50;98.00;;;;;;5106344;27;20055;-73
2023/06/19 04:55:55;;;;;;;6.90;4.25;;;21.50;98.20;;;;;;5109694;28;20035;-73
2023/06/19 04:58:21;;;;;;;7.30;5.05;;;21.60;98.30;;;;;;5100871;27;20031;-74
2023/06/19 05:00:51;;;;;;;12.80;5.10;;;21.60;98.70;;;;;;5107561;28;20046;-74
2023/06/19 05:03:21;;;;;;;6.47;4.28;;;21.60;99.10;;;;;;5118629;28;20123;-76
2023/06/19 05:05:47;;;;;;;8.07;4.30;;;21.60;99.20;;;;;;5097443;28;20086;-74
2023/06/19 05:08:13;;;;;;;6.10;4.20;;;21.60;99.20;;;;;;5103988;28;20056;-75
2023/06/19 05:10:38;;;;;;;6.85;4.15;;;21.60;99.60;;;;;;5110035;27;20453;-74
2023/06/19 05:13:04;;;;;;;5.80;3.72;;;21.60;99.80;;;;;;5089843;28;20119;-74
2023/06/19 05:15:30;;;;;;;9.63;4.13;;;21.70;99.90;;;;;;5119990;28;20053;-75
2023/06/19 05:17:55;;;;;;;5.88;4.13;;;21.80;99.90;;;;;;5115570;28;20044;-76
2023/06/19 05:20:21;;;;;;;5.70;4.10;;;21.80;99.90;;;;;;5111727;28;20039;-75
2023/06/19 05:22:46;;;;;;;8.52;4.75;;;21.80;99.90;;;;;;5112442;27;20039;-74
2023/06/19 05:25:12;;;;;;;8.45;4.15;;;21.80;99.90;;;;;;5110177;27;20036;-74
2023/06/19 05:27:38;;;;;;;6.13;4.35;;;21.90;99.90;;;;;;5100532;27;20042;-73
2023/06/19 05:30:05;;;;;;;8.77;4.90;;;21.90;99.90;;;;;;5108327;27;20430;-74
2023/06/19 05:32:31;;;;;;;7.43;4.38;;;22.00;99.90;;;;;;5099478;28;20077;-74
2023/06/19 05:34:57;;;;;;;8.63;4.53;;;22.00;99.90;;;;;;5102748;27;20512;-74
2023/06/19 05:37:22;;;;;;;5.57;4.22;;;22.20;99.90;;;;;;5101807;27;20354;-75
2023/06/19 05:39:49;;;;;;;7.63;4.57;;;22.20;99.90;;;;;;5090869;28;20043;-74
2023/06/19 05:42:14;;;;;;;8.80;4.10;;;22.20;99.90;;;;;;5112027;27;20437;-74
2023/06/19 05:44:40;;;;;;;7.97;5.25;;;22.40;99.90;;;;;;5091931;28;20135;-74
2023/06/19 05:47:09;;;;;;;7.07;4.50;;;22.30;99.90;;;;;;5087067;27;20425;-74
2023/06/19 05:49:34;;;;;;;6.57;4.78;;;22.40;99.90;;;;;;5116990;27;20099;-74
2023/06/19 05:52:01;;;;;;;5.63;4.90;;;22.30;99.90;;;;;;5103450;27;20047;-75
2023/06/19 05:54:26;;;;;;;7.80;4.55;;;22.40;99.90;;;;;;5088353;28;20051;-74
2023/06/19 05:56:53;;;;;;;9.07;4.55;;;22.50;99.90;;;;;;5114522;27;20580;-76
2023/06/19 05:59:18;;;;;;;6.50;5.20;;;22.50;99.90;;;;;;5104156;27;20115;-75
2023/06/19 06:01:44;;;;;;;5.93;4.95;;;22.60;99.90;;;;;;5086562;28;20154;-76
2023/06/19 06:04:09;;;;;;;12.98;5.43;;;22.50;99.90;;;;;;5105287;27;20066;-76
2023/06/19 06:06:35;;;;;;;6.47;5.15;;;22.50;99.90;;;;;;5109119;27;20062;-76
2023/06/19 06:09:01;;;;;;;9.07;5.60;;;22.40;99.90;;;;;;5084846;28;20581;-76
2023/06/19 06:11:26;;;;;;;8.45;6.18;;;22.30;99.90;;;;;;5106738;28;20075;-74
2023/06/19 06:13:52;;;;;;;10.82;6.28;;;22.30;99.90;;;;;;5108929;28;20508;-75
2023/06/19 06:16:19;;;;;;;9.07;5.97;;;22.20;99.90;;;;;;5124796;27;20095;-74
2023/06/19 06:18:45;;;;;;;7.80;6.22;;;22.20;99.90;;;;;;5102193;27;20048;-74
2023/06/19 06:21:12;;;;;;;11.43;6.60;;;22.10;99.90;;;;;;5088533;28;20074;-76
2023/06/19 06:23:41;;;;;;;13.20;7.18;;;22.00;99.90;;;;;;5113805;28;20396;-74
2023/06/19 06:26:07;;;;;;;10.80;6.82;;;22.00;99.90;;;;;;5094944;28;20036;-74
2023/06/19 06:28:32;;;;;;;11.60;6.82;;;22.00;99.90;;;;;;5082989;28;20040;-75
2023/06/19 06:30:59;;;;;;;8.65;6.47;;;22.00;99.90;;;;;;5094833;28;20036;-74
2023/06/19 06:33:25;;;;;;;9.05;6.43;;;22.00;99.90;;;;;;5101959;27;20070;-73
2023/06/19 06:35:51;;;;;;;12.30;6.80;;;22.00;99.90;;;;;;5101321;27;20074;-74
2023/06/19 06:38:17;;;;;;;13.98;7.18;;;21.90;99.90;;;;;;5111772;27;20528;-76
2023/06/19 06:40:43;;;;;;;10.05;6.00;;;21.90;99.90;;;;;;5080089;27;20035;-75
2023/06/19 06:43:08;;;;;;;10.18;6.93;;;21.90;99.90;;;;;;5100709;27;20389;-76
2023/06/19 06:45:34;;;;;;;9.63;6.80;;;21.90;99.90;;;;;;5123496;27;20355;-76
2023/06/19 06:48:00;;;;;;;7.95;5.78;;;21.90;99.90;;;;;;5112251;28;20141;-74
2023/06/19 06:50:25;;;;;;;11.85;5.57;;;21.90;99.90;;;;;;5109369;28;20047;-76
2023/06/19 06:52:54;;;;;;;9.57;5.55;;;21.90;99.90;;;;;;5093620;28;20051;-75
2023/06/19 06:55:20;;;;;;;6.68;5.43;;;21.90;99.90;;;;;;5117858;27;20081;-75
2023/06/19 06:57:46;;;;;;;7.90;5.47;;;21.90;99.90;;;;;;5102255;28;20062;-74
2023/06/19 07:00:12;;;;;;;6.18;5.28;;;21.90;99.90;;;;;;5114618;27;20496;-75
2023/06/19 07:02:41;;;;;;;9.52;5.60;;;21.80;99.90;;;;;;5108587;27;20038;-75
2023/06/19 07:05:08;;;;;;;8.27;5.55;;;21.80;99.90;;;;;;5104595;27;20118;-76
2023/06/19 07:07:34;;;;;;;6.25;5.47;;;21.80;99.90;;;;;;5103466;27;20084;-75
2023/06/19 07:09:59;;;;;;;8.00;6.40;;;21.80;99.90;;;;;;5107364;27;20048;-74
2023/06/19 07:12:25;;;;;;;7.90;6.35;;;21.80;99.90;;;;;;5112940;28;20042;-75
2023/06/19 07:14:54;;;;;;;11.20;7.07;;;21.80;99.90;;;;;;5100097;28;20040;-76
2023/06/19 07:17:20;;;;;;;9.73;6.50;;;21.70;99.90;;;;;;5110008;28;20073;-73
2023/06/19 07:19:45;;;;;;;9.82;6.80;;;21.70;99.90;;;;;;5103056;28;21052;-76
2023/06/19 07:22:11;;;;;;;10.30;6.85;;;21.60;99.90;;;;;;5120961;28;20612;-74
2023/06/19 07:24:36;;;;;;;8.40;6.72;;;21.60;99.90;;;;;;5114052;28;20063;-75
2023/06/19 07:27:02;;;;;;;10.10;7.00;;;21.60;99.90;;;;;;5108908;28;20080;-76
2023/06/19 07:29:28;;;;;;;9.82;6.80;;;21.50;99.90;;;;;;5109946;28;20036;-74
2023/06/19 07:31:53;;;;;;;12.05;8.10;;;21.50;99.90;;;;;;5099238;28;20046;-75
2023/06/19 07:34:19;;;;;;;11.60;7.65;;;21.50;99.90;;;;;;5090588;28;20039;-76
2023/06/19 07:36:45;;;;;;;10.70;8.77;;;21.40;99.90;;;;;;5112013;28;20043;-76
2023/06/19 07:39:10;;;;;;;14.32;9.00;;;21.40;99.90;;;;;;5113564;27;20043;-76
2023/06/19 07:41:37;;;;;;;14.52;10.63;;;21.40;99.90;;;;;;5119809;27;20523;-75
2023/06/19 07:44:03;;;;;;;15.43;11.00;;;21.30;99.90;;;;;;5109884;27;20044;-74
2023/06/19 07:46:29;;;;;;;14.63;11.25;;;21.20;99.90;;;;;;5092599;28;20040;-76
2023/06/19 07:48:57;;;;;;;18.65;13.35;;;21.20;99.90;;;;;;5113254;27;20490;-75
2023/06/19 07:51:23;;;;;;;19.50;13.48;;;21.20;99.90;;;;;;5126497;27;20027;-76
2023/06/19 07:53:52;;;;;;;17.85;12.90;;;21.10;99.90;;;;;;5073871;28;20568;-75
2023/06/19 07:56:17;;;;;;;19.05;12.65;;;21.20;99.90;;;;;;5065362;28;20056;-75
2023/06/19 07:58:43;;;;;;;20.25;14.20;;;21.10;99.90;;;;;;5070372;28;20052;-74
2023/06/19 08:01:10;;;;;;;18.02;13.40;;;21.20;99.90;;;;;;5073454;28;20145;-75
2023/06/19 08:03:35;;;;;;;18.55;12.32;;;21.20;99.90;;;;;;5070536;28;20040;-76
2023/06/19 08:06:01;;;;;;;16.45;11.88;;;21.10;99.90;;;;;;5070735;28;20478;-77
2023/06/19 08:08:27;;;;;;;21.40;12.07;;;21.20;99.90;;;;;;5072468;28;20507;-77
2023/06/19 08:10:52;;;;;;;21.02;12.90;;;21.20;99.90;;;;;;5083617;28;20037;-76
2023/06/19 08:13:18;;;;;;;15.23;11.70;;;21.20;99.90;;;;;;5076444;28;20071;-74
2023/06/19 08:15:45;;;;;;;21.67;13.13;;;21.30;99.90;;;;;;5071664;28;20090;-74
2023/06/19 08:18:10;;;;;;;15.97;11.60;;;21.40;99.90;;;;;;5070662;28;20045;-74
2023/06/19 08:20:36;;;;;;;12.80;10.27;;;21.40;99.90;;;;;;5067381;28;20039;-76
2023/06/19 08:23:01;;;;;;;13.98;9.10;;;21.40;99.90;;;;;;5097389;28;20048;-76
2023/06/19 08:25:27;;;;;;;12.23;8.45;;;21.40;99.90;;;;;;5071524;28;20055;-75
2023/06/19 08:27:53;;;;;;;12.07;8.55;;;21.40;99.90;;;;;;5071574;28;20094;-75
2023/06/19 08:30:18;;;;;;;16.80;8.63;;;21.30;99.90;;;;;;5057088;28;20123;-75
2023/06/19 08:32:46;;;;;;;11.35;7.72;;;21.40;99.90;;;;;;5057790;28;20052;-75
2023/06/19 08:35:12;;;;;;;14.80;7.55;;;21.40;99.90;;;;;;5069963;28;20115;-75
2023/06/19 08:37:37;;;;;;;12.90;7.13;;;21.50;99.90;;;;;;5081220;28;20573;-76
2023/06/19 08:40:08;;;;;;;10.85;7.20;;;21.50;99.90;;;;;;5069755;28;20055;-76
2023/06/19 08:42:34;;;;;;;18.63;7.25;;;21.60;99.90;;;;;;5072102;28;20486;-75
2023/06/19 08:45:05;;;;;;;11.82;6.45;;;21.60;99.90;;;;;;5074264;28;20044;-76
2023/06/19 08:47:34;;;;;;;11.45;6.90;;;21.70;99.90;;;;;;5079175;28;20051;-76
2023/06/19 08:50:00;;;;;;;12.63;6.95;;;21.70;99.90;;;;;;5083141;28;20051;-75
2023/06/19 08:52:25;;;;;;;10.32;6.38;;;22.00;99.90;;;;;;5067251;28;20400;-75
2023/06/19 08:54:51;;;;;;;9.45;6.20;;;21.70;99.90;;;;;;5111475;27;20082;-76
2023/06/19 08:57:16;;;;;;;11.65;5.93;;;21.70;99.90;;;;;;5105812;27;20039;-74
2023/06/19 08:59:50;;;;;;;9.60;5.47;;;21.80;99.90;;;;;;5110139;27;20032;-75
2023/06/19 09:02:16;;;;;;;12.73;5.57;;;21.70;99.90;;;;;;5079610;28;20203;-76
2023/06/19 09:04:41;;;;;;;8.63;4.90;;;21.70;99.90;;;;;;5107927;27;20499;-75
2023/06/19 09:07:08;;;;;;;6.38;4.95;;;21.70;99.90;;;;;;5119964;27;20089;-76
2023/06/19 09:09:34;;;;;;;7.75;5.22;;;21.70;99.90;;;;;;5087804;28;20039;-74
2023/06/19 09:12:05;;;;;;;11.95;5.60;;;21.70;99.90;;;;;;5116973;27;20051;-73
2023/06/19 09:14:42;;;;;;;18.83;5.82;;;21.80;99.90;;;;;;5098287;28;20032;-74
2023/06/19 09:17:11;;;;;;;15.57;5.47;;;21.80;99.90;;;;;;5119442;27;20046;-76
2023/06/19 09:19:36;;;;;;;7.90;4.70;;;22.00;99.90;;;;;;5102924;27;20165;-74
2023/06/19 09:22:07;;;;;;;5.90;4.32;;;22.20;99.90;;;;;;5099659;27;20569;-76
2023/06/19 09:24:38;;;;;;;10.77;4.25;;;22.30;99.90;;;;;;5083513;28;20040;-74
2023/06/19 09:27:13;;;;;;;9.73;4.40;;;22.40;99.90;;;;;;5111532;28;20050;-75
2023/06/19 09:29:40;;;;;;;6.07;3.78;;;22.40;99.90;;;;;;5113416;27;20035;-75
2023/06/19 09:32:23;;;;;;;7.40;4.22;;;22.40;99.90;;;;;;5115189;27;20040;-75
2023/06/19 09:34:52;;;;;;;6.53;4.38;;;22.50;99.90;;;;;;5103261;27;20457;-74
2023/06/19 09:37:26;;;;;;;14.68;5.45;;;22.60;99.90;;;;;;5112560;28;20084;-74
2023/06/19 09:39:57;;;;;;;11.20;4.55;;;22.80;99.90;;;;;;5092193;28;20044;-75
2023/06/19 09:42:35;;;;;;;11.80;4.60;;;22.80;99.90;;;;;;5101321;28;20075;-74
2023/06/19 09:45:06;;;;;;;13.45;5.20;;;22.90;99.90;;;;;;5093818;28;20083;-75
2023/06/19 09:47:38;;;;;;;16.35;7.13;;;22.90;99.90;;;;;;5118649;27;20115;-74
2023/06/19 09:50:06;;;;;;;13.25;5.40;;;22.80;99.90;;;;;;5092169;28;20054;-75
2023/06/19 09:52:32;;;;;;;7.32;4.50;;;22.70;99.90;;;;;;5110724;28;20051;-74
2023/06/19 09:54:59;;;;;;;9.70;4.88;;;22.60;99.90;;;;;;5107569;28;20031;-75
2023/06/19 09:57:25;;;;;;;9.88;4.47;;;22.50;99.90;;;;;;5078268;28;20773;-74
2023/06/19 09:59:56;;;;;;;7.18;5.18;;;22.50;99.90;;;;;;5114725;27;20035;-74
2023/06/19 10:02:23;;;;;;;9.68;5.72;;;22.40;99.90;;;;;;5112511;27;20032;-74
2023/06/19 10:04:55;;;;;;;8.57;5.28;;;22.40;99.90;;;;;;5109009;28;20039;-76
2023/06/19 10:07:23;;;;;;;10.48;6.47;;;22.40;99.90;;;;;;5100587;28;20035;-75
2023/06/19 10:09:59;;;;;;;15.57;7.10;;;22.30;99.90;;;;;;5088952;28;20039;-76
2023/06/19 10:12:39;;;;;;;11.40;7.10;;;22.30;99.90;;;;;;5109848;28;20051;-75
2023/06/19 10:15:13;;;;;;;17.38;7.28;;;22.20;99.90;;;;;;5108394;28;20059;-74
2023/06/19 10:17:44;;;;;;;10.32;7.13;;;22.20;99.90;;;;;;5116427;27;20512;-74
2023/06/19 10:20:42;;;;;;;11.55;6.88;;;22.10;99.90;;;;;;5104292;27;20048;-76
2023/06/19 10:23:22;;;;;;;13.35;7.95;;;22.00;99.90;;;;;;5107720;27;20104;-76
2023/06/19 10:25:55;;;;;;;13.18;7.68;;;21.80;99.90;;;;;;5096426;28;20051;-75
2023/06/19 10:28:28;;;;;;;11.90;7.50;;;21.80;99.90;;;;;;5100170;28;20040;-75
2023/06/19 10:30:55;;;;;;;10.48;7.63;;;21.60;99.90;;;;;;5090588;28;20409;-75
2023/06/19 10:33:26;;;;;;;9.82;7.82;;;21.60;99.90;;;;;;5106389;27;20509;-74
2023/06/19 10:35:53;;;;;;;10.25;7.78;;;21.50;99.90;;;;;;5102396;28;20088;-76
2023/06/19 10:38:18;;;;;;;12.05;7.75;;;21.50;99.90;;;;;;5108718;28;20112;-74
2023/06/19 10:40:46;;;;;;;12.40;7.43;;;21.50;99.90;;;;;;5098794;28;20513;-75
2023/06/19 10:43:12;;;;;;;;;;;21.50;99.90;;;;;;5108291;27;20040;-75
2023/06/19 10:45:38;;;;;;;12.55;8.70;;;21.50;99.90;;;;;;5112114;28;19927;-74
2023/06/19 10:48:04;;;;;;;12.77;8.00;;;21.60;99.90;;;;;;5112635;28;20106;-75
2023/06/19 10:50:36;;;;;;;11.55;8.88;;;21.80;99.90;;;;;;5091637;28;20536;-75
2023/06/19 10:53:01;;;;;;;12.23;8.20;;;21.90;99.90;;;;;;5093872;28;20059;-74
2023/06/19 10:55:27;;;;;;;14.93;8.75;;;22.10;99.90;;;;;;5117568;27;20044;-75
2023/06/19 10:57:52;;;;;;;11.30;8.27;;;22.30;99.90;;;;;;5113861;27;20042;-75
2023/06/19 11:00:32;;;;;;;11.00;7.50;;;22.30;99.90;;;;;;5097574;28;20036;-75
2023/06/19 11:02:58;;;;;;;10.95;7.75;;;22.50;99.90;;;;;;5132563;27;20035;-76
2023/06/19 11:05:25;;;;;;;14.57;7.60;;;22.70;99.90;;;;;;5110124;27;20434;-75
2023/06/19 11:07:59;;;;;;;16.30;7.00;;;22.90;99.90;;;;;;5102136;28;20491;-74
2023/06/19 11:10:27;;;;;;;11.15;7.13;;;23.00;99.90;;;;;;5100723;28;20047;-75
2023/06/19 11:12:57;;;;;;;10.48;7.85;;;23.20;99.90;;;;;;5092140;28;20040;-76
2023/06/19 11:15:33;;;;;;;11.48;7.93;;;23.10;99.90;;;;;;5087536;28;20081;-74
2023/06/19 11:18:01;;;;;;;12.15;8.18;;;23.10;99.90;;;;;;5103000;28;20043;-75
2023/06/19 11:20:26;;;;;;;12.77;9.10;;;23.00;99.90;;;;;;5108736;28;20071;-76
2023/06/19 11:22:57;;;;;;;14.60;9.00;;;23.00;99.90;;;;;;5099155;28;20093;-76
2023/06/19 11:25:23;;;;;;;18.60;8.93;;;22.90;99.90;;;;;;5110460;28;20040;-76
2023/06/19 11:27:51;;;;;;;11.60;8.38;;;23.00;99.90;;;;;;5111674;28;20046;-76
2023/06/19 11:30:20;;;;;;;12.80;8.57;;;23.20;99.90;;;;;;5112315;28;20044;-76
2023/06/19 11:32:48;;;;;;;9.75;7.32;;;23.40;99.90;;;;;;5109523;28;20070;-76
2023/06/19 11:35:16;;;;;;;14.30;7.63;;;23.80;99.90;;;;;;5083427;28;20047;-75
2023/06/19 11:37:43;;;;;;;17.05;7.50;;;24.00;99.90;;;;;;5105501;28;20093;-75
2023/06/19 11:40:12;;;;;;;12.80;6.65;;;24.20;99.70;;;;;;5105367;28;20043;-75
2023/06/19 11:42:53;;;;;;;10.88;7.45;;;24.20;99.80;;;;;;5082384;28;20374;-76
2023/06/19 11:45:18;;;;;;;14.40;7.30;;;24.50;99.80;;;;;;5084664;28;20501;-76
2023/06/19 11:47:45;;;;;;;14.23;8.43;;;24.60;99.10;;;;;;5105158;28;20058;-77
2023/06/19 11:50:13;;;;;;;13.35;7.30;;;24.50;98.30;;;;;;5080315;28;20039;-76
2023/06/19 11:52:39;;;;;;;13.02;7.85;;;24.40;98.50;;;;;;5084893;28;20065;-77
2023/06/19 11:55:05;;;;;;;11.00;6.25;;;24.60;98.70;;;;;;5121988;28;20047;-76
2023/06/19 11:57:32;;;;;;;13.75;8.15;;;24.70;98.80;;;;;;5107627;28;20118;-76
2023/06/19 11:59:58;;;;;;;14.90;9.30;;;24.90;98.30;;;;;;5103668;28;20043;-78
2023/06/19 12:02:24;;;;;;;12.40;7.60;;;24.90;97.80;;;;;;5105789;28;20031;-77
2023/06/19 12:04:49;;;;;;;11.38;8.75;;;24.80;97.60;;;;;;5105212;28;20044;-78
2023/06/19 12:07:15;;;;;;;12.90;8.55;;;24.80;97.70;;;;;;5104792;28;20031;-78
2023/06/19 12:09:43;;;;;;;13.25;7.95;;;24.80;97.50;;;;;;5084642;28;20083;-77
2023/06/19 12:12:09;;;;;;;16.77;10.18;;;24.90;97.50;;;;;;5085039;28;20120;-76
2023/06/19 12:14:34;;;;;;;12.25;9.65;;;24.80;97.50;;;;;;5096208;28;20634;-76
2023/06/19 12:17:00;;;;;;;18.05;10.30;;;24.90;97.20;;;;;;5102416;28;20524;-79
2023/06/19 12:19:27;;;;;;;12.98;10.38;;;24.90;97.10;;;;;;5109466;28;20405;-75
2023/06/19 12:21:55;;;;;;;12.18;8.60;;;24.90;97.30;;;;;;5104183;28;20044;-77
2023/06/19 12:24:21;;;;;;;14.20;9.18;;;25.10;97.40;;;;;;5082419;28;20035;-76
2023/06/19 12:26:47;;;;;;;21.65;9.07;;;25.10;96.90;;;;;;5115674;27;20032;-77
2023/06/19 12:29:12;;;;;;;17.60;8.65;;;25.10;96.90;;;;;;5117363;27;20040;-75
2023/06/19 12:31:38;;;;;;;17.55;9.80;;;25.10;96.80;;;;;;5111702;27;20470;-77
2023/06/19 12:34:06;;;;;;;13.98;8.75;;;24.90;96.40;;;;;;5109118;27;20053;-75
2023/06/19 12:36:31;;;;;;;17.55;9.75;;;24.90;96.60;;;;;;5082470;28;20160;-76
2023/06/19 12:38:59;;;;;;;13.88;8.43;;;24.80;96.60;;;;;;5111736;27;20486;-76
2023/06/19 12:41:24;;;;;;;13.98;7.88;;;24.90;96.80;;;;;;5104426;27;20135;-76